Time;durP1;ratioP1;P1;durP2;ratioP2;P2;SDS_P1;SDS_P2;PMS_P1;PMS_P2;Temp;Humidity;BMP_temperature;BMP_pressure;BME280_temperature;BME280_humidity;BME280_pressure;Samples;Min_cycle;Max_cycle;Signal;HPM_P1;HPM_P2
2021/06/07 00:00:46;;;;;;;5.57;4.50;;;12.80;97.40;;;;;;5099471;28;20118;-65
2021/06/07 00:03:12;;;;;;;6.70;4.82;;;12.80;97.50;;;;;;5088445;28;20036;-67
2021/06/07 00:05:39;;;;;;;11.57;5.95;;;12.80;97.50;;;;;;5097288;28;20055;-65
2021/06/07 00:08:05;;;;;;;5.60;4.28;;;12.80;97.50;;;;;;5089506;28;20487;-65
2021/06/07 00:10:32;;;;;;;5.72;4.78;;;12.70;97.50;;;;;;5102428;28;20035;-65
2021/06/07 00:12:59;;;;;;;7.25;4.28;;;12.80;97.50;;;;;;5091825;28;20247;-65
2021/06/07 00:15:26;;;;;;;8.05;4.63;;;12.80;97.40;;;;;;5094872;28;20047;-65
2021/06/07 00:17:52;;;;;;;7.28;4.53;;;12.80;97.40;;;;;;5089229;28;20050;-65
2021/06/07 00:20:34;;;;;;;8.43;4.40;;;12.90;97.40;;;;;;5099259;28;20082;-65
2021/06/07 00:23:00;;;;;;;7.60;4.75;;;12.90;97.50;;;;;;5096462;28;20048;-65
2021/06/07 00:25:26;;;;;;;5.15;4.10;;;12.90;97.40;;;;;;5105601;28;20115;-65
2021/06/07 00:27:52;;;;;;;6.28;4.82;;;12.90;97.30;;;;;;5092715;28;20043;-65
2021/06/07 00:30:19;;;;;;;5.38;4.28;;;12.90;97.30;;;;;;5093276;28;20081;-65
2021/06/07 00:32:45;;;;;;;4.57;4.13;;;12.90;97.30;;;;;;5096548;28;20484;-65
2021/06/07 00:35:17;;;;;;;6.72;4.80;;;13.00;97.40;;;;;;5098501;28;20358;-65
2021/06/07 00:37:43;;;;;;;6.45;5.43;;;13.00;97.30;;;;;;5090133;28;20047;-65
2021/06/07 00:40:09;;;;;;;6.57;5.03;;;12.90;97.20;;;;;;5104581;28;20042;-65
2021/06/07 00:42:35;;;;;;;5.38;4.85;;;13.00;97.20;;;;;;5096078;28;20116;-65
2021/06/07 00:45:03;;;;;;;8.43;4.68;;;13.00;97.20;;;;;;5093012;28;20040;-65
2021/06/07 00:47:30;;;;;;;6.63;5.07;;;12.90;97.20;;;;;;5101832;28;20047;-65
2021/06/07 00:49:56;;;;;;;6.07;4.63;;;13.00;97.30;;;;;;5092413;28;20142;-65
2021/06/07 00:52:22;;;;;;;5.72;4.55;;;13.00;97.30;;;;;;5096952;28;20046;-65
2021/06/07 00:54:47;;;;;;;6.60;4.75;;;12.90;97.30;;;;;;5092158;28;20043;-65
2021/06/07 00:57:13;;;;;;;5.82;4.38;;;13.00;97.30;;;;;;5102146;28;20391;-65
2021/06/07 00:59:39;;;;;;;8.23;5.13;;;13.00;97.30;;;;;;5095999;28;20050;-65
2021/06/07 01:02:05;;;;;;;6.28;5.15;;;13.00;97.30;;;;;;5095023;28;20039;-65
2021/06/07 01:04:31;;;;;;;9.15;5.20;;;13.00;97.30;;;;;;5089478;28;20130;-66
2021/06/07 01:06:56;;;;;;;6.38;5.50;;;13.00;97.40;;;;;;5084914;28;20052;-66
2021/06/07 01:09:22;;;;;;;5.85;5.20;;;13.00;97.40;;;;;;5100361;28;20063;-66
2021/06/07 01:11:48;;;;;;;8.50;5.25;;;13.00;97.50;;;;;;5096702;28;20043;-66
2021/06/07 01:14:14;;;;;;;7.63;4.85;;;13.00;97.50;;;;;;5090537;28;20036;-66
2021/06/07 01:16:39;;;;;;;6.22;5.50;;;13.00;97.40;;;;;;5101313;28;20047;-66
2021/06/07 01:19:07;;;;;;;6.18;4.95;;;13.00;97.40;;;;;;5093563;27;20035;-66
2021/06/07 01:21:33;;;;;;;9.93;5.13;;;13.00;97.40;;;;;;5101857;28;20085;-66
2021/06/07 01:23:59;;;;;;;5.85;4.32;;;13.00;97.40;;;;;;5109801;28;20047;-66
2021/06/07 01:26:26;;;;;;;6.38;5.03;;;13.00;97.50;;;;;;5097037;27;20421;-66
2021/06/07 01:28:52;;;;;;;6.80;4.95;;;13.00;97.50;;;;;;5105003;28;20039;-66
2021/06/07 01:31:19;;;;;;;8.45;4.50;;;13.00;97.60;;;;;;5091638;28;20040;-66
2021/06/07 01:33:49;;;;;;;6.85;4.95;;;13.00;97.50;;;;;;5105865;27;20090;-66
2021/06/07 01:36:16;;;;;;;4.97;4.50;;;13.00;97.50;;;;;;5093042;28;20075;-66
2021/06/07 01:38:42;;;;;;;10.10;5.63;;;13.00;97.60;;;;;;5102527;27;20051;-66
2021/06/07 01:41:11;;;;;;;5.20;4.70;;;13.00;97.60;;;;;;5097064;27;20066;-66
2021/06/07 01:43:38;;;;;;;8.07;5.20;;;13.00;97.40;;;;;;5105201;27;20031;-66
2021/06/07 01:46:05;;;;;;;8.63;4.97;;;13.00;97.40;;;;;;5095196;28;20032;-65
2021/06/07 01:48:31;;;;;;;7.20;4.72;;;13.00;97.40;;;;;;5104775;27;20046;-65
2021/06/07 01:50:59;;;;;;;5.68;5.00;;;12.90;97.50;;;;;;5094269;28;20464;-65
2021/06/07 01:53:26;;;;;;;6.95;5.32;;;12.90;97.50;;;;;;5099881;27;20031;-65
2021/06/07 01:55:56;;;;;;;6.32;5.50;;;12.80;97.50;;;;;;5095341;28;20127;-65
2021/06/07 01:58:23;;;;;;;6.18;4.88;;;12.70;97.50;;;;;;5101773;27;20353;-65
2021/06/07 02:00:56;;;;;;;6.82;5.90;;;12.70;97.60;;;;;;5094648;27;20104;-65
2021/06/07 02:03:23;;;;;;;6.88;6.00;;;12.60;97.60;;;;;;5082438;28;20373;-65
2021/06/07 02:05:56;;;;;;;8.68;5.65;;;12.60;97.70;;;;;;5102876;27;20122;-65
2021/06/07 02:08:23;;;;;;;6.13;5.53;;;12.50;97.80;;;;;;5098411;28;20101;-65
2021/06/07 02:10:52;;;;;;;5.63;5.13;;;12.40;97.90;;;;;;5101432;27;20298;-65
2021/06/07 02:13:20;;;;;;;6.40;5.65;;;12.30;98.00;;;;;;5100084;27;20042;-65
2021/06/07 02:15:57;;;;;;;6.43;5.72;;;12.30;98.00;;;;;;5106687;28;20036;-65
2021/06/07 02:18:23;;;;;;;6.45;5.85;;;12.20;98.10;;;;;;5095335;27;20044;-65
2021/06/07 02:20:49;;;;;;;10.77;6.10;;;12.10;98.20;;;;;;5104748;27;20028;-65
2021/06/07 02:23:15;;;;;;;7.13;5.93;;;12.10;98.30;;;;;;5097211;28;20326;-65
2021/06/07 02:25:41;;;;;;;7.65;5.68;;;12.00;98.30;;;;;;5108464;28;20131;-66
2021/06/07 02:28:15;;;;;;;7.57;6.20;;;12.00;98.40;;;;;;5094675;27;20105;-66
2021/06/07 02:30:41;;;;;;;8.05;6.15;;;11.90;98.50;;;;;;5105026;27;20034;-66
2021/06/07 02:33:07;;;;;;;9.52;6.63;;;11.90;98.60;;;;;;5095366;28;20558;-66
2021/06/07 02:35:34;;;;;;;9.38;6.75;;;11.80;98.60;;;;;;5105459;28;20435;-66
2021/06/07 02:38:00;;;;;;;7.82;6.68;;;11.80;98.70;;;;;;5094016;28;20477;-65
2021/06/07 02:40:28;;;;;;;7.30;6.60;;;11.80;98.70;;;;;;5105011;27;20537;-65
2021/06/07 02:42:55;;;;;;;7.50;6.60;;;11.70;98.80;;;;;;5100484;27;20042;-65
2021/06/07 02:45:22;;;;;;;7.40;6.63;;;11.60;98.90;;;;;;5100440;28;20028;-65
2021/06/07 02:47:50;;;;;;;7.57;6.88;;;11.70;99.20;;;;;;5096238;28;20082;-65
2021/06/07 02:50:20;;;;;;;8.32;6.65;;;11.60;99.00;;;;;;5098960;28;20050;-65
2021/06/07 02:52:49;;;;;;;7.47;6.43;;;11.60;99.00;;;;;;5096448;27;20044;-65
2021/06/07 02:55:28;;;;;;;8.18;7.07;;;11.50;99.10;;;;;;5099000;28;20115;-65
2021/06/07 02:57:55;;;;;;;8.70;6.90;;;11.50;99.10;;;;;;5093154;27;20043;-65
2021/06/07 03:00:31;;;;;;;10.70;7.63;;;11.40;99.10;;;;;;5102147;28;20148;-65
2021/06/07 03:03:00;;;;;;;9.55;7.40;;;11.40;99.20;;;;;;5095746;28;20152;-65
2021/06/07 03:05:27;;;;;;;7.30;6.22;;;11.40;99.20;;;;;;5102399;27;20051;-65
2021/06/07 03:07:53;;;;;;;9.05;8.15;;;11.30;99.20;;;;;;5094923;28;20044;-65
2021/06/07 03:10:19;;;;;;;8.35;7.50;;;11.30;99.40;;;;;;5093879;27;20481;-65
2021/06/07 03:12:45;;;;;;;7.63;6.82;;;11.30;99.40;;;;;;5102446;28;20483;-65
2021/06/07 03:15:14;;;;;;;13.80;7.05;;;11.20;99.40;;;;;;5093536;28;20032;-65
2021/06/07 03:17:41;;;;;;;9.55;6.85;;;11.30;99.40;;;;;;5103693;28;20507;-65
2021/06/07 03:20:15;;;;;;;7.95;7.03;;;11.20;99.50;;;;;;5096220;28;20047;-65
2021/06/07 03:22:41;;;;;;;9.65;7.60;;;11.20;99.50;;;;;;5097859;27;20044;-65
2021/06/07 03:25:13;;;;;;;9.77;7.07;;;11.20;99.60;;;;;;5089443;28;20442;-65
2021/06/07 03:27:41;;;;;;;9.57;6.75;;;11.20;99.60;;;;;;5095412;27;20043;-65
2021/06/07 03:30:08;;;;;;;13.07;7.28;;;11.20;99.70;;;;;;5097094;27;20032;-65
2021/06/07 03:32:34;;;;;;;7.95;7.13;;;11.20;99.70;;;;;;5097828;28;20040;-65
2021/06/07 03:35:01;;;;;;;10.43;7.50;;;11.20;99.80;;;;;;5097283;28;20040;-65
2021/06/07 03:37:27;;;;;;;10.52;7.20;;;11.20;99.80;;;;;;5096128;28;20044;-65
2021/06/07 03:39:53;;;;;;;8.30;6.95;;;11.20;99.80;;;;;;5091567;28;20027;-65
2021/06/07 03:42:19;;;;;;;9.32;6.80;;;11.20;99.90;;;;;;5103035;27;20036;-65
2021/06/07 03:44:44;;;;;;;7.80;7.03;;;11.20;99.80;;;;;;5098753;28;20384;-65
2021/06/07 03:47:10;;;;;;;8.38;7.50;;;11.20;99.80;;;;;;5096707;28;20035;-65
2021/06/07 03:49:36;;;;;;;8.80;7.05;;;11.10;99.80;;;;;;5095580;28;20123;-65
2021/06/07 03:52:02;;;;;;;9.00;6.85;;;11.20;99.90;;;;;;5090551;27;20039;-65
2021/06/07 03:54:28;;;;;;;10.68;7.70;;;11.10;99.90;;;;;;5095724;28;20483;-65
2021/06/07 03:56:54;;;;;;;8.57;7.45;;;11.10;99.90;;;;;;5092449;27;20051;-65
2021/06/07 03:59:19;;;;;;;8.93;7.85;;;11.10;99.90;;;;;;5094787;28;20035;-65
2021/06/07 04:01:47;;;;;;;9.35;7.78;;;11.10;99.90;;;;;;5092920;27;20031;-65
2021/06/07 04:04:13;;;;;;;8.43;7.63;;;11.10;99.90;;;;;;5103690;27;20183;-65
2021/06/07 04:06:38;;;;;;;8.65;7.68;;;11.10;99.90;;;;;;5090817;28;20052;-65
2021/06/07 04:09:05;;;;;;;7.68;6.93;;;11.00;99.90;;;;;;5097271;27;20488;-65
2021/06/07 04:11:30;;;;;;;9.38;8.18;;;11.10;99.90;;;;;;5095487;28;20052;-65
2021/06/07 04:13:56;;;;;;;8.95;7.38;;;11.10;99.90;;;;;;5097822;28;20337;-65
2021/06/07 04:16:22;;;;;;;37.63;32.78;;;11.10;99.90;;;;;;5093893;28;20035;-65
2021/06/07 04:18:48;;;;;;;32.10;27.70;;;11.10;99.90;;;;;;5095558;28;20060;-65
2021/06/07 04:21:14;;;;;;;12.32;8.55;;;11.10;99.90;;;;;;5099028;28;20131;-65
2021/06/07 04:23:40;;;;;;;13.30;8.65;;;11.10;99.90;;;;;;5097258;28;20139;-65
2021/06/07 04:26:06;;;;;;;9.00;8.10;;;11.10;99.90;;;;;;5094715;28;20539;-65
2021/06/07 04:28:33;;;;;;;9.55;7.65;;;11.10;99.90;;;;;;5097919;28;20040;-65
2021/06/07 04:31:00;;;;;;;9.43;8.52;;;11.20;99.90;;;;;;5104963;28;20040;-65
2021/06/07 04:33:26;;;;;;;10.18;8.15;;;11.30;99.90;;;;;;5095137;28;20059;-65
2021/06/07 04:35:52;;;;;;;8.50;7.63;;;11.30;99.90;;;;;;5097916;28;20070;-65
2021/06/07 04:38:18;;;;;;;9.45;7.80;;;11.40;99.90;;;;;;5090867;28;20083;-65
2021/06/07 04:40:44;;;;;;;11.85;8.80;;;11.50;99.90;;;;;;5098078;28;20063;-66
2021/06/07 04:43:12;;;;;;;9.27;8.10;;;11.60;99.90;;;;;;5090300;28;20032;-66
2021/06/07 04:45:41;;;;;;;12.88;7.65;;;11.70;99.90;;;;;;5105476;28;20036;-66
2021/06/07 04:48:07;;;;;;;9.88;8.02;;;11.90;99.90;;;;;;5095470;28;20036;-66
2021/06/07 04:50:34;;;;;;;8.93;7.95;;;12.00;99.90;;;;;;5102061;28;20060;-66
2021/06/07 04:53:01;;;;;;;10.18;7.10;;;12.10;99.90;;;;;;5093856;28;20044;-66
2021/06/07 04:55:33;;;;;;;8.55;6.75;;;12.40;99.90;;;;;;5099428;27;20737;-66
2021/06/07 04:58:05;;;;;;;7.95;6.20;;;12.80;99.90;;;;;;5095245;28;20488;-66
2021/06/07 05:00:32;;;;;;;9.73;5.93;;;13.30;99.90;;;;;;5099452;28;20054;-66
2021/06/07 05:02:58;;;;;;;7.80;5.40;;;13.80;99.70;;;;;;5098870;27;20047;-66
2021/06/07 05:05:24;;;;;;;7.90;5.05;;;14.20;99.00;;;;;;5105673;28;20062;-66
2021/06/07 05:07:50;;;;;;;7.82;5.28;;;14.40;98.40;;;;;;5095866;27;20047;-66
2021/06/07 05:10:16;;;;;;;8.07;4.63;;;14.40;98.20;;;;;;5098252;28;20468;-66
2021/06/07 05:12:42;;;;;;;8.15;5.25;;;14.30;98.00;;;;;;5099864;28;20035;-66
2021/06/07 05:15:10;;;;;;;6.75;5.20;;;14.30;98.20;;;;;;5092865;28;20066;-66
2021/06/07 05:17:36;;;;;;;7.45;5.35;;;14.20;98.20;;;;;;5101299;27;20073;-66
2021/06/07 05:20:08;;;;;;;5.63;4.97;;;14.20;98.00;;;;;;5099075;27;20402;-66
2021/06/07 05:22:34;;;;;;;5.18;4.28;;;14.20;98.10;;;;;;5105276;27;20051;-66
2021/06/07 05:25:00;;;;;;;7.10;4.90;;;14.20;98.00;;;;;;5097696;27;20028;-66
2021/06/07 05:27:26;;;;;;;5.13;4.45;;;14.30;97.90;;;;;;5104178;28;20051;-66
2021/06/07 05:29:52;;;;;;;6.32;4.28;;;14.30;97.80;;;;;;5096400;27;20046;-66
2021/06/07 05:32:17;;;;;;;7.32;3.85;;;14.30;97.70;;;;;;5099133;27;20561;-66
2021/06/07 05:34:44;;;;;;;5.00;3.92;;;14.40;97.70;;;;;;5101942;28;20043;-66
2021/06/07 05:37:10;;;;;;;6.18;4.47;;;14.50;97.50;;;;;;5107240;27;20418;-66
2021/06/07 05:39:36;;;;;;;5.75;4.45;;;14.50;97.40;;;;;;5099838;27;20144;-66
2021/06/07 05:42:02;;;;;;;6.93;4.35;;;14.50;97.40;;;;;;5098960;28;20041;-66
2021/06/07 05:44:28;;;;;;;7.28;4.88;;;14.60;97.30;;;;;;5095354;27;20048;-66
2021/06/07 05:46:54;;;;;;;5.55;3.95;;;14.70;97.20;;;;;;5107773;28;20117;-66
2021/06/07 05:49:20;;;;;;;5.05;4.07;;;14.70;97.00;;;;;;5107738;28;20044;-66
2021/06/07 05:51:46;;;;;;;5.65;4.30;;;14.70;96.70;;;;;;5102108;28;20122;-66
2021/06/07 05:54:12;;;;;;;6.68;4.43;;;14.80;96.40;;;;;;5110335;27;20042;-66
2021/06/07 05:56:38;;;;;;;6.40;4.32;;;14.90;96.40;;;;;;5101669;28;20048;-66
2021/06/07 05:59:07;;;;;;;7.28;5.20;;;14.90;96.30;;;;;;5106067;27;20048;-66
2021/06/07 06:01:34;;;;;;;6.05;4.35;;;14.90;96.10;;;;;;5097793;28;20070;-66
2021/06/07 06:04:01;;;;;;;5.78;3.95;;;15.00;96.20;;;;;;5110017;27;20059;-66
2021/06/07 06:06:27;;;;;;;5.85;4.68;;;15.10;96.00;;;;;;5097565;27;20115;-66
2021/06/07 06:08:53;;;;;;;6.15;4.13;;;15.10;96.00;;;;;;5108290;27;20747;-66
2021/06/07 06:11:21;;;;;;;6.40;4.05;;;15.20;95.70;;;;;;5100320;27;20036;-66
2021/06/07 06:13:50;;;;;;;6.90;4.20;;;15.30;95.10;;;;;;5101575;27;20043;-66
2021/06/07 06:16:21;;;;;;;5.95;4.57;;;15.30;95.00;;;;;;5091736;27;20031;-66
2021/06/07 06:18:47;;;;;;;5.68;3.45;;;15.40;94.90;;;;;;5100775;28;20062;-66
2021/06/07 06:21:13;;;;;;;4.22;3.83;;;15.50;94.80;;;;;;5090783;28;20480;-66
2021/06/07 06:23:39;;;;;;;5.53;3.55;;;15.60;94.50;;;;;;5096831;28;20053;-66
2021/06/07 06:26:07;;;;;;;6.90;4.15;;;15.70;93.80;;;;;;5098821;27;20468;-66
2021/06/07 06:28:35;;;;;;;6.50;3.70;;;15.70;93.60;;;;;;5093222;28;20048;-66
2021/06/07 06:31:05;;;;;;;6.20;2.50;;;15.80;94.00;;;;;;5097670;27;20140;-66
2021/06/07 06:33:31;;;;;;;4.00;2.53;;;15.90;93.20;;;;;;5096678;28;20047;-66
2021/06/07 06:35:57;;;;;;;6.03;2.55;;;16.00;92.30;;;;;;5078794;28;20036;-66
2021/06/07 06:38:23;;;;;;;6.20;2.53;;;16.10;92.10;;;;;;5089112;28;20415;-66
2021/06/07 06:40:52;;;;;;;4.07;2.10;;;16.10;91.60;;;;;;5104162;28;20044;-66
2021/06/07 06:43:18;;;;;;;4.13;1.77;;;16.20;91.30;;;;;;5096592;28;20043;-66
2021/06/07 06:45:44;;;;;;;4.60;2.13;;;16.30;90.80;;;;;;5096059;27;20372;-66
2021/06/07 06:48:10;;;;;;;3.50;1.45;;;16.30;90.20;;;;;;5098518;28;20122;-66
2021/06/07 06:50:39;;;;;;;5.60;1.70;;;16.40;90.10;;;;;;5099786;28;20048;-66
2021/06/07 06:53:10;;;;;;;5.10;1.65;;;16.50;88.30;;;;;;5094690;28;20051;-66
2021/06/07 06:55:36;;;;;;;4.40;1.20;;;16.60;89.00;;;;;;5094151;28;20407;-66
2021/06/07 06:58:02;;;;;;;3.40;1.25;;;16.70;87.60;;;;;;5096052;27;20043;-66
2021/06/07 07:00:30;;;;;;;4.30;1.58;;;16.80;86.50;;;;;;5101033;28;20453;-66
2021/06/07 07:02:56;;;;;;;3.17;1.55;;;16.90;86.60;;;;;;5094228;28;20055;-66
2021/06/07 07:05:22;;;;;;;3.03;1.40;;;17.00;86.90;;;;;;5102193;28;20055;-66
2021/06/07 07:07:48;;;;;;;2.92;1.17;;;17.10;87.30;;;;;;5090038;28;20044;-67
2021/06/07 07:10:14;;;;;;;2.65;1.38;;;17.30;86.90;;;;;;5096869;28;20047;-67
2021/06/07 07:12:40;;;;;;;2.53;1.42;;;17.40;87.40;;;;;;5094152;27;20040;-67
2021/06/07 07:15:06;;;;;;;1.88;1.13;;;17.60;85.60;;;;;;5106761;28;20060;-67
2021/06/07 07:17:32;;;;;;;1.92;1.10;;;17.60;84.60;;;;;;5098212;28;20047;-67
2021/06/07 07:19:58;;;;;;;6.38;1.48;;;17.70;83.70;;;;;;5081218;28;20088;-67
2021/06/07 07:22:24;;;;;;;2.75;1.15;;;17.80;84.00;;;;;;5097511;28;20056;-67
2021/06/07 07:24:50;;;;;;;3.72;1.80;;;17.90;82.10;;;;;;5089795;28;20031;-67
2021/06/07 07:27:17;;;;;;;3.45;1.30;;;17.90;80.70;;;;;;5102974;27;20035;-67
2021/06/07 07:29:44;;;;;;;4.00;0.80;;;17.90;81.10;;;;;;5093019;28;20065;-67
2021/06/07 07:32:10;;;;;;;4.50;1.10;;;18.00;79.80;;;;;;5104936;28;20043;-67
2021/06/07 07:34:37;;;;;;;2.05;0.93;;;18.10;79.70;;;;;;5093920;28;20112;-67
2021/06/07 07:37:04;;;;;;;3.80;1.25;;;18.20;77.70;;;;;;5100633;28;20615;-67
2021/06/07 07:39:30;;;;;;;3.10;1.30;;;18.30;79.60;;;;;;5094398;28;20507;-67
2021/06/07 07:41:56;;;;;;;5.57;1.10;;;18.50;78.20;;;;;;5100248;28;20047;-67
2021/06/07 07:44:22;;;;;;;3.30;1.40;;;18.70;77.50;;;;;;5091859;28;20043;-66
2021/06/07 07:46:48;;;;;;;3.45;1.25;;;18.70;72.40;;;;;;5103250;28;20032;-68
2021/06/07 07:49:15;;;;;;;3.53;1.15;;;18.80;74.80;;;;;;5093126;28;20039;-68
2021/06/07 07:51:42;;;;;;;5.20;1.90;;;18.80;75.70;;;;;;5097669;28;20092;-68
2021/06/07 07:54:08;;;;;;;4.50;1.80;;;18.90;73.90;;;;;;5097746;28;20044;-66
2021/06/07 07:56:35;;;;;;;73.43;58.20;;;19.00;74.10;;;;;;5095939;28;20333;-67
2021/06/07 07:59:01;;;;;;;40.22;34.20;;;19.10;73.70;;;;;;5097769;28;20040;-67
2021/06/07 08:01:28;;;;;;;7.60;2.88;;;19.30;72.30;;;;;;5094166;28;20585;-67
2021/06/07 08:03:53;;;;;;;3.28;1.88;;;19.30;72.10;;;;;;5099025;27;20040;-67
2021/06/07 08:06:19;;;;;;;27.85;5.22;;;19.30;71.50;;;;;;5093124;27;20047;-68
2021/06/07 08:08:45;;;;;;;6.65;2.33;;;19.40;72.00;;;;;;5106455;27;20063;-68
2021/06/07 08:11:12;;;;;;;3.58;1.80;;;19.40;71.30;;;;;;5098052;28;20043;-67
2021/06/07 08:13:40;;;;;;;4.03;2.28;;;19.40;69.60;;;;;;5103290;28;20040;-68
2021/06/07 08:16:07;;;;;;;4.35;2.08;;;19.40;69.50;;;;;;5098112;27;20058;-68
2021/06/07 08:18:33;;;;;;;4.43;2.55;;;19.50;71.00;;;;;;5104542;28;20061;-67
2021/06/07 08:20:59;;;;;;;3.65;2.10;;;19.60;70.80;;;;;;5094615;28;20479;-68
2021/06/07 08:23:25;;;;;;;4.63;2.78;;;19.60;72.80;;;;;;5104088;28;20044;-67
2021/06/07 08:25:51;;;;;;;3.72;2.05;;;19.70;70.80;;;;;;5096754;28;20090;-68
2021/06/07 08:28:17;;;;;;;3.80;2.20;;;19.90;69.60;;;;;;5103801;28;20039;-66
2021/06/07 08:30:42;;;;;;;6.03;1.98;;;19.80;67.90;;;;;;5095007;27;20043;-66
2021/06/07 08:33:08;;;;;;;3.38;1.90;;;19.80;69.10;;;;;;5107251;28;20157;-69
2021/06/07 08:35:34;;;;;;;4.68;1.80;;;20.00;69.60;;;;;;5103912;28;20368;-68
2021/06/07 08:38:00;;;;;;;5.18;2.58;;;20.10;68.40;;;;;;5096957;28;20475;-68
2021/06/07 08:40:26;;;;;;;3.00;1.67;;;20.20;66.70;;;;;;5103995;28;20051;-66
2021/06/07 08:42:52;;;;;;;4.25;1.90;;;20.20;67.80;;;;;;5098543;28;20028;-68
2021/06/07 08:45:21;;;;;;;3.45;1.70;;;20.30;69.10;;;;;;5100659;28;20059;-67
2021/06/07 08:47:49;;;;;;;4.47;2.45;;;20.50;68.70;;;;;;5100971;27;20046;-67
2021/06/07 08:50:19;;;;;;;3.95;1.73;;;20.50;65.40;;;;;;5103407;28;20044;-71
2021/06/07 08:52:45;;;;;;;5.78;1.70;;;20.50;65.30;;;;;;5094321;28;20043;-68
2021/06/07 08:55:16;;;;;;;6.28;1.77;;;20.60;64.70;;;;;;5103832;28;20395;-67
2021/06/07 08:57:48;;;;;;;3.75;2.10;;;20.70;65.90;;;;;;5099589;27;20051;-68
2021/06/07 09:00:21;;;;;;;4.38;1.80;;;20.90;65.30;;;;;;5110100;27;20054;-66
2021/06/07 09:02:48;;;;;;;4.38;2.17;;;21.10;64.50;;;;;;5097254;28;20483;-68
2021/06/07 09:05:17;;;;;;;6.25;2.00;;;21.30;65.40;;;;;;5104317;28;20155;-67
2021/06/07 09:08:03;;;;;;;5.63;1.50;;;21.40;63.90;;;;;;5096292;28;20040;-67
2021/06/07 09:10:39;;;;;;;4.00;2.13;;;21.40;65.30;;;;;;5099139;28;20043;-67
2021/06/07 09:13:07;;;;;;;5.85;1.85;;;21.60;61.90;;;;;;5097309;28;20531;-67
2021/06/07 09:15:42;;;;;;;5.47;2.63;;;21.50;62.70;;;;;;5106371;28;20036;-66
2021/06/07 09:18:12;;;;;;;4.00;1.60;;;21.20;59.80;;;;;;5101368;28;20074;-67
2021/06/07 09:20:39;;;;;;;3.42;2.00;;;21.40;64.70;;;;;;5102630;28;20027;-67
2021/06/07 09:23:09;;;;;;;5.97;1.85;;;21.70;64.10;;;;;;5099056;28;20032;-67
2021/06/07 09:25:46;;;;;;;4.13;2.35;;;21.90;62.40;;;;;;5102920;27;20422;-67
2021/06/07 09:28:22;;;;;;;4.38;2.15;;;22.10;59.00;;;;;;5105393;28;20044;-67
2021/06/07 09:30:52;;;;;;;4.78;1.90;;;22.00;61.20;;;;;;5104496;28;20043;-67
2021/06/07 09:33:27;;;;;;;5.18;1.70;;;22.40;61.30;;;;;;5098659;28;20387;-67
2021/06/07 09:36:17;;;;;;;4.35;2.33;;;22.70;58.70;;;;;;5101447;28;20051;-67
2021/06/07 09:38:54;;;;;;;4.43;1.80;;;23.00;60.60;;;;;;5093418;28;20036;-67
2021/06/07 09:41:21;;;;;;;4.90;1.60;;;23.00;56.90;;;;;;5105872;27;20047;-66
2021/06/07 09:43:57;;;;;;;3.63;1.67;;;22.70;56.70;;;;;;5103184;28;20094;-66
2021/06/07 09:46:25;;;;;;;4.03;1.40;;;22.90;56.70;;;;;;5099914;28;20036;-66
2021/06/07 09:49:35;;;;;;;3.05;1.40;;;22.90;57.50;;;;;;5102465;28;20036;-67
2021/06/07 09:52:01;;;;;;;3.55;1.30;;;23.10;56.50;;;;;;5028715;28;20605;-67
2021/06/07 09:54:27;;;;;;;3.83;1.38;;;23.20;57.30;;;;;;5024741;28;20127;-67
2021/06/07 09:56:58;;;;;;;3.05;1.48;;;23.40;57.60;;;;;;5068985;28;20392;-67
2021/06/07 09:59:28;;;;;;;1.83;1.30;;;23.50;56.60;;;;;;5092385;27;20056;-67
2021/06/07 10:01:57;;;;;;;2.75;1.30;;;23.50;56.80;;;;;;5104124;27;20036;-67
2021/06/07 10:04:46;;;;;;;3.47;1.15;;;23.40;54.90;;;;;;5082814;28;20040;-67
2021/06/07 10:07:12;;;;;;;3.15;1.02;;;23.30;53.40;;;;;;5101889;28;20069;-67
2021/06/07 10:09:37;;;;;;;4.25;1.70;;;23.30;54.70;;;;;;5097094;28;20078;-67
2021/06/07 10:12:25;;;;;;;5.95;1.88;;;23.50;53.90;;;;;;5098822;28;20043;-67
2021/06/07 10:14:51;;;;;;;3.13;1.20;;;23.70;52.70;;;;;;5095272;27;20067;-67
2021/06/07 10:17:16;;;;;;;4.32;1.30;;;23.80;55.60;;;;;;5102466;28;20474;-67
2021/06/07 10:22:12;;;;;;;2.58;1.40;;;23.90;50.70;;;;;;5100404;28;20138;-67
2021/06/07 10:24:39;;;;;;;4.00;1.60;;;24.30;53.60;;;;;;5107850;28;20089;-65
2021/06/07 10:27:07;;;;;;;2.78;1.30;;;24.10;50.90;;;;;;5099156;28;20229;-65
2021/06/07 10:29:34;;;;;;;2.85;0.90;;;24.30;52.60;;;;;;5107334;28;20395;-66
2021/06/07 10:32:17;;;;;;;4.72;1.15;;;24.40;52.20;;;;;;5097984;27;20475;-66
2021/06/07 10:34:48;;;;;;;2.53;1.37;;;24.40;50.10;;;;;;5101533;28;20046;-65
2021/06/07 10:37:14;;;;;;;3.67;0.98;;;24.20;51.50;;;;;;5097167;28;20071;-66
2021/06/07 10:39:40;;;;;;;3.30;1.27;;;24.30;50.50;;;;;;5105848;27;20092;-65
2021/06/07 10:42:09;;;;;;;3.42;1.60;;;24.50;49.70;;;;;;5098411;28;20089;-65
2021/06/07 10:44:45;;;;;;;2.78;1.40;;;24.70;50.00;;;;;;5098900;28;20510;-65
2021/06/07 10:47:15;;;;;;;1.67;0.82;;;24.70;50.40;;;;;;5094951;28;20039;-65
2021/06/07 10:49:57;;;;;;;2.72;1.40;;;24.70;50.00;;;;;;5098924;28;20060;-65
2021/06/07 10:52:28;;;;;;;3.22;0.70;;;24.90;45.90;;;;;;5092300;28;20056;-65
2021/06/07 10:55:11;;;;;;;3.38;1.25;;;24.90;47.10;;;;;;5103786;27;20403;-65
2021/06/07 10:57:46;;;;;;;2.95;1.13;;;25.10;46.30;;;;;;5102279;28;20036;-66
2021/06/07 11:00:17;;;;;;;3.53;1.25;;;25.10;45.50;;;;;;5102047;28;20048;-66
2021/06/07 11:02:46;;;;;;;2.83;1.50;;;25.40;47.70;;;;;;5093641;28;20055;-66
2021/06/07 11:05:14;;;;;;;3.90;1.00;;;25.50;47.30;;;;;;5105348;28;20078;-66
2021/06/07 11:07:43;;;;;;;2.17;0.68;;;25.60;45.70;;;;;;5093734;28;20475;-65
2021/06/07 11:10:19;;;;;;;2.03;0.82;;;25.40;45.60;;;;;;5101180;28;20052;-65
2021/06/07 11:12:50;;;;;;;2.38;0.90;;;25.20;41.70;;;;;;5091153;28;20315;-65
2021/06/07 11:15:47;;;;;;;4.25;1.05;;;25.40;44.60;;;;;;5100809;28;20119;-65
2021/06/07 11:18:20;;;;;;;3.08;0.80;;;25.40;44.10;;;;;;5083665;28;20086;-65
2021/06/07 11:20:47;;;;;;;2.17;0.73;;;25.50;45.90;;;;;;5101508;28;20024;-65
2021/06/07 11:23:18;;;;;;;2.50;0.70;;;25.70;42.40;;;;;;5088712;27;20040;-65
2021/06/07 11:25:54;;;;;;;3.33;0.77;;;26.10;42.50;;;;;;5095822;28;20070;-65
2021/06/07 11:28:48;;;;;;;4.25;0.85;;;26.10;43.10;;;;;;5094225;28;20071;-65
2021/06/07 11:31:19;;;;;;;2.80;0.80;;;26.10;41.20;;;;;;5094404;28;20078;-65
2021/06/07 11:33:52;;;;;;;2.17;0.65;;;26.00;41.30;;;;;;5093407;28;20379;-64
2021/06/07 11:36:38;;;;;;;3.08;0.80;;;26.00;41.90;;;;;;5099760;28;20032;-67
2021/06/07 11:39:10;;;;;;;3.47;0.60;;;25.90;42.50;;;;;;5097763;28;20039;-67
2021/06/07 11:42:00;;;;;;;1.42;0.65;;;25.80;42.20;;;;;;5102193;28;20043;-67
2021/06/07 11:44:50;;;;;;;2.05;0.52;;;25.80;42.40;;;;;;5075098;28;20048;-67
2021/06/07 11:47:26;;;;;;;2.00;0.60;;;25.90;42.20;;;;;;5096838;28;20054;-67
2021/06/07 11:49:55;;;;;;;2.42;0.90;;;26.10;42.50;;;;;;5095612;28;20139;-67
2021/06/07 11:52:51;;;;;;;1.90;0.70;;;25.80;42.80;;;;;;5096411;28;20122;-67
2021/06/07 11:55:33;;;;;;;1.98;0.82;;;26.00;40.90;;;;;;5091892;28;20039;-67
2021/06/07 11:58:08;;;;;;;1.65;0.50;;;25.90;42.50;;;;;;5098895;28;20046;-67
2021/06/07 12:00:36;;;;;;;2.08;0.57;;;25.70;42.70;;;;;;5089462;27;20391;-67
2021/06/07 12:03:13;;;;;;;2.25;0.75;;;25.80;42.00;;;;;;5098392;28;20398;-67
2021/06/07 12:05:40;;;;;;;2.72;0.50;;;26.00;43.00;;;;;;5093561;28;20076;-68
2021/06/07 12:08:13;;;;;;;1.80;0.70;;;25.60;42.50;;;;;;5101469;28;20059;-67
2021/06/07 12:10:41;;;;;;;3.28;1.02;;;25.70;41.20;;;;;;5096802;28;20392;-66
2021/06/07 12:13:23;;;;;;;2.35;0.70;;;25.70;43.40;;;;;;5102760;28;20483;-68
2021/06/07 12:16:01;;;;;;;3.05;0.73;;;26.10;46.00;;;;;;5093234;28;20024;-68
2021/06/07 12:18:34;;;;;;;10.63;1.08;;;26.40;42.80;;;;;;5097495;28;20142;-68
2021/06/07 12:21:03;;;;;;;3.25;0.80;;;26.50;40.10;;;;;;5095427;28;20122;-68
2021/06/07 12:23:37;;;;;;;3.65;0.60;;;26.20;41.60;;;;;;5099772;28;20143;-69
2021/06/07 12:29:28;;;;;;;2.80;0.57;;;26.00;40.20;;;;;;5102340;28;20332;-65
2021/06/07 12:32:11;;;;;;;3.58;1.13;;;26.10;41.20;;;;;;5097623;28;20047;-65
2021/06/07 12:34:58;;;;;;;4.22;0.82;;;26.10;40.50;;;;;;5095618;28;20040;-65
2021/06/07 12:37:27;;;;;;;2.25;0.80;;;25.80;43.40;;;;;;5093825;28;20158;-65
2021/06/07 12:40:08;;;;;;;2.88;0.90;;;26.10;43.50;;;;;;5105124;28;20123;-65
2021/06/07 12:42:34;;;;;;;2.38;0.90;;;26.20;42.70;;;;;;5099807;28;20069;-78
2021/06/07 12:45:09;;;;;;;4.15;1.17;;;26.20;42.40;;;;;;5082025;28;20055;-66
2021/06/07 12:47:36;;;;;;;1.73;0.85;;;26.20;42.20;;;;;;5099369;28;20055;-67
2021/06/07 12:50:16;;;;;;;2.17;0.88;;;26.20;41.90;;;;;;5099278;28;20044;-67
2021/06/07 12:52:46;;;;;;;4.85;1.05;;;26.30;42.00;;;;;;5096910;28;20423;-65
2021/06/07 12:55:13;;;;;;;3.58;0.70;;;26.50;41.80;;;;;;5093814;28;20040;-68
2021/06/07 12:57:39;;;;;;;1.52;0.55;;;26.40;42.20;;;;;;5094451;28;20048;-68
2021/06/07 13:00:27;;;;;;;3.33;0.82;;;26.40;43.40;;;;;;5098038;28;20101;-66